sensor_id;sensor_type;location;lat;lon;timestamp;temperature;humidity
44775;DHT22;31340;51.402;0.016;2023-04-24T00:02:19;11.10;99.90
44775;DHT22;31340;51.402;0.016;2023-04-24T00:04:47;11.10;99.90
44775;DHT22;31340;51.402;0.016;2023-04-24T00:07:16;11.00;99.90
44775;DHT22;31340;51.402;0.016;2023-04-24T00:09:44;11.00;99.90
44775;DHT22;31340;51.402;0.016;2023-04-24T00:12:12;11.00;99.90
44775;DHT22;31340;51.402;0.016;2023-04-24T00:14:39;11.00;99.90
44775;DHT22;31340;51.402;0.016;2023-04-24T00:17:07;11.00;99.90
44775;DHT22;31340;51.402;0.016;2023-04-24T00:19:35;11.00;99.90
44775;DHT22;31340;51.402;0.016;2023-04-24T00:22:03;11.00;99.90
44775;DHT22;31340;51.402;0.016;2023-04-24T00:24:31;11.10;99.90
44775;DHT22;31340;51.402;0.016;2023-04-24T00:26:58;10.90;99.90
44775;DHT22;31340;51.402;0.016;2023-04-24T00:29:28;10.90;99.90
44775;DHT22;31340;51.402;0.016;2023-04-24T00:31:55;10.90;99.90
44775;DHT22;31340;51.402;0.016;2023-04-24T00:34:23;10.90;99.90
44775;DHT22;31340;51.402;0.016;2023-04-24T00:36:51;11.00;99.90
44775;DHT22;31340;51.402;0.016;2023-04-24T00:39:19;10.90;99.90
44775;DHT22;31340;51.402;0.016;2023-04-24T00:41:47;10.90;99.90
44775;DHT22;31340;51.402;0.016;2023-04-24T00:44:15;10.90;99.90
44775;DHT22;31340;51.402;0.016;2023-04-24T00:46:43;10.90;99.90
44775;DHT22;31340;51.402;0.016;2023-04-24T00:49:12;11.00;99.90
44775;DHT22;31340;51.402;0.016;2023-04-24T00:51:39;11.00;99.90
44775;DHT22;31340;51.402;0.016;2023-04-24T00:54:08;11.00;99.90
44775;DHT22;31340;51.402;0.016;2023-04-24T00:56:35;11.00;99.90
44775;DHT22;31340;51.402;0.016;2023-04-24T00:59:04;11.00;99.90
44775;DHT22;31340;51.402;0.016;2023-04-24T01:01:32;11.00;99.90
44775;DHT22;31340;51.402;0.016;2023-04-24T01:04:00;11.00;99.90
44775;DHT22;31340;51.402;0.016;2023-04-24T01:06:29;11.00;99.90
44775;DHT22;31340;51.402;0.016;2023-04-24T01:08:58;11.00;99.90
44775;DHT22;31340;51.402;0.016;2023-04-24T01:11:30;11.00;99.90
44775;DHT22;31340;51.402;0.016;2023-04-24T01:13:57;11.00;99.90
44775;DHT22;31340;51.402;0.016;2023-04-24T01:16:26;11.00;99.90
44775;DHT22;31340;51.402;0.016;2023-04-24T01:18:54;10.90;99.90
44775;DHT22;31340;51.402;0.016;2023-04-24T01:21:23;10.90;99.90
44775;DHT22;31340;51.402;0.016;2023-04-24T01:23:55;10.90;99.90
44775;DHT22;31340;51.402;0.016;2023-04-24T01:26:23;10.90;99.90
44775;DHT22;31340;51.402;0.016;2023-04-24T01:28:53;10.90;99.90
44775;DHT22;31340;51.402;0.016;2023-04-24T01:31:21;10.90;99.90
44775;DHT22;31340;51.402;0.016;2023-04-24T01:33:49;10.90;99.90
44775;DHT22;31340;51.402;0.016;2023-04-24T01:36:18;10.90;99.90
44775;DHT22;31340;51.402;0.016;2023-04-24T01:38:46;10.90;99.90
44775;DHT22;31340;51.402;0.016;2023-04-24T01:41:14;11.00;99.90
44775;DHT22;31340;51.402;0.016;2023-04-24T01:43:41;10.90;99.90
44775;DHT22;31340;51.402;0.016;2023-04-24T01:46:09;11.00;99.90
44775;DHT22;31340;51.402;0.016;2023-04-24T01:48:37;11.00;99.90
44775;DHT22;31340;51.402;0.016;2023-04-24T01:51:04;10.90;99.90
44775;DHT22;31340;51.402;0.016;2023-04-24T01:53:32;11.00;99.90
44775;DHT22;31340;51.402;0.016;2023-04-24T01:56:00;11.00;99.90
44775;DHT22;31340;51.402;0.016;2023-04-24T01:58:27;11.00;99.90
44775;DHT22;31340;51.402;0.016;2023-04-24T02:00:56;11.00;99.90
44775;DHT22;31340;51.402;0.016;2023-04-24T02:03:26;11.00;99.90
44775;DHT22;31340;51.402;0.016;2023-04-24T02:05:57;10.90;99.90
44775;DHT22;31340;51.402;0.016;2023-04-24T02:08:24;10.90;99.90
44775;DHT22;31340;51.402;0.016;2023-04-24T02:10:52;10.90;99.90
44775;DHT22;31340;51.402;0.016;2023-04-24T02:13:20;10.90;99.90
44775;DHT22;31340;51.402;0.016;2023-04-24T02:15:47;10.90;99.90
44775;DHT22;31340;51.402;0.016;2023-04-24T02:18:15;10.90;99.90
44775;DHT22;31340;51.402;0.016;2023-04-24T02:20:42;10.80;99.90
44775;DHT22;31340;51.402;0.016;2023-04-24T02:23:10;10.80;99.90
44775;DHT22;31340;51.402;0.016;2023-04-24T02:25:38;10.80;99.90
44775;DHT22;31340;51.402;0.016;2023-04-24T02:28:06;10.80;99.90
44775;DHT22;31340;51.402;0.016;2023-04-24T02:30:34;10.80;99.90
44775;DHT22;31340;51.402;0.016;2023-04-24T02:33:01;10.70;99.90
44775;DHT22;31340;51.402;0.016;2023-04-24T02:35:30;10.70;99.90
44775;DHT22;31340;51.402;0.016;2023-04-24T02:37:58;10.70;99.90
44775;DHT22;31340;51.402;0.016;2023-04-24T02:40:25;10.70;99.90
44775;DHT22;31340;51.402;0.016;2023-04-24T02:42:53;10.70;99.90
44775;DHT22;31340;51.402;0.016;2023-04-24T02:45:21;10.70;99.90
44775;DHT22;31340;51.402;0.016;2023-04-24T02:47:48;10.70;99.90
44775;DHT22;31340;51.402;0.016;2023-04-24T02:50:16;10.70;99.90
44775;DHT22;31340;51.402;0.016;2023-04-24T02:52:44;10.60;99.90
44775;DHT22;31340;51.402;0.016;2023-04-24T02:55:12;10.60;99.90
44775;DHT22;31340;51.402;0.016;2023-04-24T02:57:40;10.60;99.90
44775;DHT22;31340;51.402;0.016;2023-04-24T03:00:08;10.60;99.90
44775;DHT22;31340;51.402;0.016;2023-04-24T03:02:36;10.60;99.90
44775;DHT22;31340;51.402;0.016;2023-04-24T03:05:04;10.60;99.90
44775;DHT22;31340;51.402;0.016;2023-04-24T03:07:33;10.60;99.90
44775;DHT22;31340;51.402;0.016;2023-04-24T03:10:00;10.50;99.90
44775;DHT22;31340;51.402;0.016;2023-04-24T03:12:28;10.50;99.90
44775;DHT22;31340;51.402;0.016;2023-04-24T03:14:55;10.50;99.90
44775;DHT22;31340;51.402;0.016;2023-04-24T03:17:23;10.50;99.90
44775;DHT22;31340;51.402;0.016;2023-04-24T03:19:52;10.50;99.90
44775;DHT22;31340;51.402;0.016;2023-04-24T03:22:19;10.50;99.90
44775;DHT22;31340;51.402;0.016;2023-04-24T03:24:47;10.50;99.90
44775;DHT22;31340;51.402;0.016;2023-04-24T03:27:20;10.50;99.90
44775;DHT22;31340;51.402;0.016;2023-04-24T03:29:57;10.50;99.90
44775;DHT22;31340;51.402;0.016;2023-04-24T03:32:33;10.50;99.90
44775;DHT22;31340;51.402;0.016;2023-04-24T03:35:02;10.40;99.90
44775;DHT22;31340;51.402;0.016;2023-04-24T03:37:31;10.40;99.90
44775;DHT22;31340;51.402;0.016;2023-04-24T03:40:12;10.40;99.90
44775;DHT22;31340;51.402;0.016;2023-04-24T03:42:40;10.40;99.90
44775;DHT22;31340;51.402;0.016;2023-04-24T03:45:09;10.40;99.90
44775;DHT22;31340;51.402;0.016;2023-04-24T03:47:40;10.40;99.90
44775;DHT22;31340;51.402;0.016;2023-04-24T03:50:09;10.40;99.90
44775;DHT22;31340;51.402;0.016;2023-04-24T03:52:40;10.40;99.90
44775;DHT22;31340;51.402;0.016;2023-04-24T03:55:10;10.40;99.90
44775;DHT22;31340;51.402;0.016;2023-04-24T03:57:44;10.40;99.90
44775;DHT22;31340;51.402;0.016;2023-04-24T04:00:20;10.30;99.90
44775;DHT22;31340;51.402;0.016;2023-04-24T04:02:55;10.30;99.90
44775;DHT22;31340;51.402;0.016;2023-04-24T04:05:23;10.30;99.90
44775;DHT22;31340;51.402;0.016;2023-04-24T04:07:51;10.30;99.90
44775;DHT22;31340;51.402;0.016;2023-04-24T04:10:19;10.30;99.90
44775;DHT22;31340;51.402;0.016;2023-04-24T04:12:46;10.30;99.90
44775;DHT22;31340;51.402;0.016;2023-04-24T04:15:14;10.30;99.90
44775;DHT22;31340;51.402;0.016;2023-04-24T04:17:41;10.30;99.90
44775;DHT22;31340;51.402;0.016;2023-04-24T04:20:09;10.30;99.90
44775;DHT22;31340;51.402;0.016;2023-04-24T04:22:38;10.30;99.90
44775;DHT22;31340;51.402;0.016;2023-04-24T04:25:10;10.30;99.90
44775;DHT22;31340;51.402;0.016;2023-04-24T04:27:39;10.30;99.90
44775;DHT22;31340;51.402;0.016;2023-04-24T04:30:10;10.30;99.90
44775;DHT22;31340;51.402;0.016;2023-04-24T04:32:46;10.30;99.90
44775;DHT22;31340;51.402;0.016;2023-04-24T04:35:14;10.30;99.90
44775;DHT22;31340;51.402;0.016;2023-04-24T04:37:43;10.30;99.90
44775;DHT22;31340;51.402;0.016;2023-04-24T04:40:43;10.30;99.90
44775;DHT22;31340;51.402;0.016;2023-04-24T04:43:12;10.30;99.90
44775;DHT22;31340;51.402;0.016;2023-04-24T04:45:49;10.30;99.90
44775;DHT22;31340;51.402;0.016;2023-04-24T04:48:53;10.30;99.90
44775;DHT22;31340;51.402;0.016;2023-04-24T04:51:21;10.30;99.90
44775;DHT22;31340;51.402;0.016;2023-04-24T04:53:49;10.20;99.90
44775;DHT22;31340;51.402;0.016;2023-04-24T04:56:17;10.30;99.90
44775;DHT22;31340;51.402;0.016;2023-04-24T04:58:46;10.30;99.90
44775;DHT22;31340;51.402;0.016;2023-04-24T05:01:16;10.20;99.90
44775;DHT22;31340;51.402;0.016;2023-04-24T05:03:46;10.30;99.90
44775;DHT22;31340;51.402;0.016;2023-04-24T05:06:16;10.30;99.90
44775;DHT22;31340;51.402;0.016;2023-04-24T05:08:46;10.20;99.90
44775;DHT22;31340;51.402;0.016;2023-04-24T05:11:29;10.20;99.90
44775;DHT22;31340;51.402;0.016;2023-04-24T05:13:59;10.20;99.90
44775;DHT22;31340;51.402;0.016;2023-04-24T05:16:35;10.20;99.90
44775;DHT22;31340;51.402;0.016;2023-04-24T05:19:06;10.20;99.90
44775;DHT22;31340;51.402;0.016;2023-04-24T05:21:37;10.20;99.90
44775;DHT22;31340;51.402;0.016;2023-04-24T05:24:07;10.20;99.90
44775;DHT22;31340;51.402;0.016;2023-04-24T05:26:53;10.20;99.90
44775;DHT22;31340;51.402;0.016;2023-04-24T05:29:25;10.20;99.90
44775;DHT22;31340;51.402;0.016;2023-04-24T05:31:58;10.20;99.90
44775;DHT22;31340;51.402;0.016;2023-04-24T05:34:28;10.20;99.90
44775;DHT22;31340;51.402;0.016;2023-04-24T05:36:57;10.20;99.90
44775;DHT22;31340;51.402;0.016;2023-04-24T05:39:25;10.20;99.90
44775;DHT22;31340;51.402;0.016;2023-04-24T05:41:54;10.30;99.90
44775;DHT22;31340;51.402;0.016;2023-04-24T05:44:25;10.30;99.90
44775;DHT22;31340;51.402;0.016;2023-04-24T05:46:53;10.30;99.90
44775;DHT22;31340;51.402;0.016;2023-04-24T05:49:23;10.30;99.90
44775;DHT22;31340;51.402;0.016;2023-04-24T05:51:51;10.30;99.90
44775;DHT22;31340;51.402;0.016;2023-04-24T05:54:18;10.30;99.90
44775;DHT22;31340;51.402;0.016;2023-04-24T05:56:46;10.30;99.90
44775;DHT22;31340;51.402;0.016;2023-04-24T05:59:21;10.30;99.90
44775;DHT22;31340;51.402;0.016;2023-04-24T06:01:48;10.30;99.90
44775;DHT22;31340;51.402;0.016;2023-04-24T06:04:20;10.30;99.90
44775;DHT22;31340;51.402;0.016;2023-04-24T06:06:49;10.30;99.90
44775;DHT22;31340;51.402;0.016;2023-04-24T06:09:22;10.40;99.90
44775;DHT22;31340;51.402;0.016;2023-04-24T06:11:50;10.30;99.90
44775;DHT22;31340;51.402;0.016;2023-04-24T06:14:25;10.40;99.90
44775;DHT22;31340;51.402;0.016;2023-04-24T06:17:13;10.40;99.90
44775;DHT22;31340;51.402;0.016;2023-04-24T06:19:41;10.40;99.90
44775;DHT22;31340;51.402;0.016;2023-04-24T06:22:09;10.40;99.90
44775;DHT22;31340;51.402;0.016;2023-04-24T06:24:39;10.50;99.90
44775;DHT22;31340;51.402;0.016;2023-04-24T06:27:06;10.50;99.90
44775;DHT22;31340;51.402;0.016;2023-04-24T06:29:36;10.50;99.90
44775;DHT22;31340;51.402;0.016;2023-04-24T06:32:04;10.60;99.90
44775;DHT22;31340;51.402;0.016;2023-04-24T06:34:32;10.60;99.90
44775;DHT22;31340;51.402;0.016;2023-04-24T06:37:02;10.60;99.90
44775;DHT22;31340;51.402;0.016;2023-04-24T06:39:29;10.70;99.90
44775;DHT22;31340;51.402;0.016;2023-04-24T06:41:58;10.70;99.90
44775;DHT22;31340;51.402;0.016;2023-04-24T06:44:25;10.70;99.90
44775;DHT22;31340;51.402;0.016;2023-04-24T06:46:53;10.80;99.90
44775;DHT22;31340;51.402;0.016;2023-04-24T06:49:20;10.80;99.90
44775;DHT22;31340;51.402;0.016;2023-04-24T06:51:48;10.80;99.90
44775;DHT22;31340;51.402;0.016;2023-04-24T06:54:15;10.90;99.90
44775;DHT22;31340;51.402;0.016;2023-04-24T06:56:43;10.90;99.90
44775;DHT22;31340;51.402;0.016;2023-04-24T06:59:12;10.90;99.90
44775;DHT22;31340;51.402;0.016;2023-04-24T07:01:40;11.00;99.90
44775;DHT22;31340;51.402;0.016;2023-04-24T07:04:08;11.00;99.90
44775;DHT22;31340;51.402;0.016;2023-04-24T07:06:35;11.00;99.90
44775;DHT22;31340;51.402;0.016;2023-04-24T07:09:04;11.10;99.90
44775;DHT22;31340;51.402;0.016;2023-04-24T07:11:32;11.00;99.90
44775;DHT22;31340;51.402;0.016;2023-04-24T07:14:00;11.10;99.90
44775;DHT22;31340;51.402;0.016;2023-04-24T07:16:28;11.10;99.90
44775;DHT22;31340;51.402;0.016;2023-04-24T07:18:55;11.10;99.90
44775;DHT22;31340;51.402;0.016;2023-04-24T07:21:23;11.10;99.90
44775;DHT22;31340;51.402;0.016;2023-04-24T07:23:50;11.20;99.90
44775;DHT22;31340;51.402;0.016;2023-04-24T07:26:19;11.20;99.90
44775;DHT22;31340;51.402;0.016;2023-04-24T07:28:46;11.20;99.90
44775;DHT22;31340;51.402;0.016;2023-04-24T07:31:14;11.20;99.90
44775;DHT22;31340;51.402;0.016;2023-04-24T07:33:42;11.20;99.90
44775;DHT22;31340;51.402;0.016;2023-04-24T07:36:09;11.20;99.90
44775;DHT22;31340;51.402;0.016;2023-04-24T07:38:42;11.20;99.90
44775;DHT22;31340;51.402;0.016;2023-04-24T07:41:10;11.20;99.90
44775;DHT22;31340;51.402;0.016;2023-04-24T07:43:37;11.20;99.90
44775;DHT22;31340;51.402;0.016;2023-04-24T07:46:06;11.30;99.90
44775;DHT22;31340;51.402;0.016;2023-04-24T07:48:35;11.30;99.90
44775;DHT22;31340;51.402;0.016;2023-04-24T07:51:03;11.30;99.90
44775;DHT22;31340;51.402;0.016;2023-04-24T07:53:31;11.30;99.90
44775;DHT22;31340;51.402;0.016;2023-04-24T07:55:58;11.30;99.90
44775;DHT22;31340;51.402;0.016;2023-04-24T07:58:26;11.40;99.90
44775;DHT22;31340;51.402;0.016;2023-04-24T08:00:53;11.40;99.90
44775;DHT22;31340;51.402;0.016;2023-04-24T08:03:21;11.40;99.90
44775;DHT22;31340;51.402;0.016;2023-04-24T08:05:49;11.40;99.90
44775;DHT22;31340;51.402;0.016;2023-04-24T08:08:21;11.40;99.90
44775;DHT22;31340;51.402;0.016;2023-04-24T08:10:49;11.50;99.90
44775;DHT22;31340;51.402;0.016;2023-04-24T08:13:17;11.50;99.90
44775;DHT22;31340;51.402;0.016;2023-04-24T08:15:44;11.50;99.90
44775;DHT22;31340;51.402;0.016;2023-04-24T08:18:12;11.60;99.90
44775;DHT22;31340;51.402;0.016;2023-04-24T08:20:41;11.60;99.90
44775;DHT22;31340;51.402;0.016;2023-04-24T08:23:09;11.70;99.90
44775;DHT22;31340;51.402;0.016;2023-04-24T08:25:37;11.80;99.80
44775;DHT22;31340;51.402;0.016;2023-04-24T08:28:06;11.80;99.70
44775;DHT22;31340;51.402;0.016;2023-04-24T08:30:35;11.90;99.50
44775;DHT22;31340;51.402;0.016;2023-04-24T08:33:03;11.90;99.30
44775;DHT22;31340;51.402;0.016;2023-04-24T08:35:31;12.00;99.30
44775;DHT22;31340;51.402;0.016;2023-04-24T08:37:59;12.10;99.20
44775;DHT22;31340;51.402;0.016;2023-04-24T08:40:28;12.10;99.00
44775;DHT22;31340;51.402;0.016;2023-04-24T08:42:58;12.20;98.50
44775;DHT22;31340;51.402;0.016;2023-04-24T08:45:26;12.20;98.40
44775;DHT22;31340;51.402;0.016;2023-04-24T08:47:54;12.30;98.30
44775;DHT22;31340;51.402;0.016;2023-04-24T08:50:22;12.30;97.90
44775;DHT22;31340;51.402;0.016;2023-04-24T08:52:51;12.40;97.90
44775;DHT22;31340;51.402;0.016;2023-04-24T08:55:21;12.50;98.20
44775;DHT22;31340;51.402;0.016;2023-04-24T08:57:51;12.50;98.30
44775;DHT22;31340;51.402;0.016;2023-04-24T09:00:20;12.60;98.10
44775;DHT22;31340;51.402;0.016;2023-04-24T09:02:52;12.70;98.20
44775;DHT22;31340;51.402;0.016;2023-04-24T09:05:21;12.70;98.00
44775;DHT22;31340;51.402;0.016;2023-04-24T09:07:59;12.80;97.60
44775;DHT22;31340;51.402;0.016;2023-04-24T09:10:29;12.90;96.80
44775;DHT22;31340;51.402;0.016;2023-04-24T09:12:58;13.00;96.80
44775;DHT22;31340;51.402;0.016;2023-04-24T09:15:29;13.00;96.60
44775;DHT22;31340;51.402;0.016;2023-04-24T09:17:56;13.20;96.50
44775;DHT22;31340;51.402;0.016;2023-04-24T09:20:24;13.20;96.30
44775;DHT22;31340;51.402;0.016;2023-04-24T09:22:55;13.30;95.90
44775;DHT22;31340;51.402;0.016;2023-04-24T09:25:33;13.30;95.40
44775;DHT22;31340;51.402;0.016;2023-04-24T09:28:04;13.40;95.20
44775;DHT22;31340;51.402;0.016;2023-04-24T09:30:33;13.40;95.30
44775;DHT22;31340;51.402;0.016;2023-04-24T09:33:15;13.40;95.10
44775;DHT22;31340;51.402;0.016;2023-04-24T09:35:49;13.40;94.80
44775;DHT22;31340;51.402;0.016;2023-04-24T09:38:17;13.50;94.90
44775;DHT22;31340;51.402;0.016;2023-04-24T09:40:44;13.60;94.80
44775;DHT22;31340;51.402;0.016;2023-04-24T09:43:12;13.60;94.70
44775;DHT22;31340;51.402;0.016;2023-04-24T09:45:40;13.70;94.50
44775;DHT22;31340;51.402;0.016;2023-04-24T09:48:10;13.70;94.10
44775;DHT22;31340;51.402;0.016;2023-04-24T09:50:38;13.80;93.90
44775;DHT22;31340;51.402;0.016;2023-04-24T09:53:06;13.80;93.90
44775;DHT22;31340;51.402;0.016;2023-04-24T09:55:42;13.90;94.20
44775;DHT22;31340;51.402;0.016;2023-04-24T09:58:11;14.00;94.20
44775;DHT22;31340;51.402;0.016;2023-04-24T10:00:39;14.10;93.90
44775;DHT22;31340;51.402;0.016;2023-04-24T10:03:07;14.20;93.70
44775;DHT22;31340;51.402;0.016;2023-04-24T10:05:36;14.30;93.50
44775;DHT22;31340;51.402;0.016;2023-04-24T10:08:06;14.40;93.50
44775;DHT22;31340;51.402;0.016;2023-04-24T10:10:40;14.50;93.70
44775;DHT22;31340;51.402;0.016;2023-04-24T10:13:10;14.60;93.30
44775;DHT22;31340;51.402;0.016;2023-04-24T10:15:39;14.70;92.50
44775;DHT22;31340;51.402;0.016;2023-04-24T10:18:09;14.70;92.50
44775;DHT22;31340;51.402;0.016;2023-04-24T10:20:39;14.80;92.20
44775;DHT22;31340;51.402;0.016;2023-04-24T10:23:07;14.90;92.00
44775;DHT22;31340;51.402;0.016;2023-04-24T10:25:36;14.90;91.60
44775;DHT22;31340;51.402;0.016;2023-04-24T10:28:04;14.90;91.10
44775;DHT22;31340;51.402;0.016;2023-04-24T10:30:35;14.90;91.70
44775;DHT22;31340;51.402;0.016;2023-04-24T10:33:04;14.90;91.70
44775;DHT22;31340;51.402;0.016;2023-04-24T10:35:35;15.00;91.50
44775;DHT22;31340;51.402;0.016;2023-04-24T10:38:08;15.00;91.20
44775;DHT22;31340;51.402;0.016;2023-04-24T10:40:36;15.00;91.00
44775;DHT22;31340;51.402;0.016;2023-04-24T10:43:05;15.00;91.20
44775;DHT22;31340;51.402;0.016;2023-04-24T10:45:36;15.00;91.40
44775;DHT22;31340;51.402;0.016;2023-04-24T10:48:09;15.00;91.40
44775;DHT22;31340;51.402;0.016;2023-04-24T10:50:47;15.00;91.30
44775;DHT22;31340;51.402;0.016;2023-04-24T10:53:17;15.00;91.10
44775;DHT22;31340;51.402;0.016;2023-04-24T10:55:50;15.10;91.00
44775;DHT22;31340;51.402;0.016;2023-04-24T10:58:23;15.10;90.80
44775;DHT22;31340;51.402;0.016;2023-04-24T11:00:59;15.20;90.80
44775;DHT22;31340;51.402;0.016;2023-04-24T11:03:29;15.20;90.80
44775;DHT22;31340;51.402;0.016;2023-04-24T11:05:58;15.20;91.10
44775;DHT22;31340;51.402;0.016;2023-04-24T11:08:31;15.30;91.00
44775;DHT22;31340;51.402;0.016;2023-04-24T11:11:11;15.30;90.60
44775;DHT22;31340;51.402;0.016;2023-04-24T11:16:44;15.40;90.00
44775;DHT22;31340;51.402;0.016;2023-04-24T11:21:48;15.40;90.20
44775;DHT22;31340;51.402;0.016;2023-04-24T11:24:39;15.40;90.10
44775;DHT22;31340;51.402;0.016;2023-04-24T11:27:20;15.40;90.20
44775;DHT22;31340;51.402;0.016;2023-04-24T11:29:48;15.40;90.50
44775;DHT22;31340;51.402;0.016;2023-04-24T11:34:58;15.50;90.10
44775;DHT22;31340;51.402;0.016;2023-04-24T11:37:29;15.50;90.10
44775;DHT22;31340;51.402;0.016;2023-04-24T11:39:58;15.50;90.00
44775;DHT22;31340;51.402;0.016;2023-04-24T11:42:26;15.50;90.00
44775;DHT22;31340;51.402;0.016;2023-04-24T11:44:54;15.60;90.10
44775;DHT22;31340;51.402;0.016;2023-04-24T11:47:31;15.60;90.10
44775;DHT22;31340;51.402;0.016;2023-04-24T11:50:02;15.70;90.20
44775;DHT22;31340;51.402;0.016;2023-04-24T11:52:31;15.70;90.30
44775;DHT22;31340;51.402;0.016;2023-04-24T11:54:59;15.80;89.60
44775;DHT22;31340;51.402;0.016;2023-04-24T11:57:28;15.90;89.40
44775;DHT22;31340;51.402;0.016;2023-04-24T12:00:01;16.00;89.30
44775;DHT22;31340;51.402;0.016;2023-04-24T12:02:39;16.10;88.70
44775;DHT22;31340;51.402;0.016;2023-04-24T12:05:08;16.10;88.70
44775;DHT22;31340;51.402;0.016;2023-04-24T12:07:42;16.20;89.00
44775;DHT22;31340;51.402;0.016;2023-04-24T12:10:10;16.30;88.40
44775;DHT22;31340;51.402;0.016;2023-04-24T12:12:38;16.40;88.50
44775;DHT22;31340;51.402;0.016;2023-04-24T12:15:09;16.40;88.30
44775;DHT22;31340;51.402;0.016;2023-04-24T12:17:41;16.60;88.20
44775;DHT22;31340;51.402;0.016;2023-04-24T12:20:10;16.70;88.40
44775;DHT22;31340;51.402;0.016;2023-04-24T12:22:53;16.80;88.20
44775;DHT22;31340;51.402;0.016;2023-04-24T12:25:30;17.00;88.00
44775;DHT22;31340;51.402;0.016;2023-04-24T12:30:34;17.40;87.20
44775;DHT22;31340;51.402;0.016;2023-04-24T12:33:03;17.60;86.70
44775;DHT22;31340;51.402;0.016;2023-04-24T12:35:33;17.90;86.30
44775;DHT22;31340;51.402;0.016;2023-04-24T12:38:08;18.10;86.30
44775;DHT22;31340;51.402;0.016;2023-04-24T12:40:36;18.40;85.70
44775;DHT22;31340;51.402;0.016;2023-04-24T12:43:22;18.70;84.90
44775;DHT22;31340;51.402;0.016;2023-04-24T12:45:50;19.10;82.80
44775;DHT22;31340;51.402;0.016;2023-04-24T12:48:17;19.30;82.50
44775;DHT22;31340;51.402;0.016;2023-04-24T12:50:45;19.50;81.70
44775;DHT22;31340;51.402;0.016;2023-04-24T12:53:14;19.70;80.10
44775;DHT22;31340;51.402;0.016;2023-04-24T12:55:43;19.80;79.20
44775;DHT22;31340;51.402;0.016;2023-04-24T12:58:12;19.90;78.30
44775;DHT22;31340;51.402;0.016;2023-04-24T13:00:40;19.90;77.10
44775;DHT22;31340;51.402;0.016;2023-04-24T13:03:11;19.90;77.30
44775;DHT22;31340;51.402;0.016;2023-04-24T13:05:39;19.90;77.30
44775;DHT22;31340;51.402;0.016;2023-04-24T13:08:07;19.90;76.90
44775;DHT22;31340;51.402;0.016;2023-04-24T13:10:35;19.90;76.20
44775;DHT22;31340;51.402;0.016;2023-04-24T13:13:03;19.80;75.20
44775;DHT22;31340;51.402;0.016;2023-04-24T13:15:30;19.80;75.00
44775;DHT22;31340;51.402;0.016;2023-04-24T13:17:58;19.70;74.80
44775;DHT22;31340;51.402;0.016;2023-04-24T13:20:26;19.70;74.50
44775;DHT22;31340;51.402;0.016;2023-04-24T13:22:54;19.70;74.40
44775;DHT22;31340;51.402;0.016;2023-04-24T13:25:23;19.60;74.10
44775;DHT22;31340;51.402;0.016;2023-04-24T13:27:52;19.60;73.50
44775;DHT22;31340;51.402;0.016;2023-04-24T13:30:19;19.50;73.50
44775;DHT22;31340;51.402;0.016;2023-04-24T13:32:47;19.60;73.50
44775;DHT22;31340;51.402;0.016;2023-04-24T13:35:15;19.60;73.20
44775;DHT22;31340;51.402;0.016;2023-04-24T13:37:43;19.60;72.90
44775;DHT22;31340;51.402;0.016;2023-04-24T13:40:11;19.70;72.80
44775;DHT22;31340;51.402;0.016;2023-04-24T13:42:39;19.80;72.70
44775;DHT22;31340;51.402;0.016;2023-04-24T13:45:07;19.90;72.30
44775;DHT22;31340;51.402;0.016;2023-04-24T13:47:50;20.00;72.00
44775;DHT22;31340;51.402;0.016;2023-04-24T13:50:19;20.00;72.20
44775;DHT22;31340;51.402;0.016;2023-04-24T13:52:47;20.10;71.60
44775;DHT22;31340;51.402;0.016;2023-04-24T13:55:15;20.20;72.30
44775;DHT22;31340;51.402;0.016;2023-04-24T13:57:42;20.20;71.00
44775;DHT22;31340;51.402;0.016;2023-04-24T14:00:10;20.30;70.50
44775;DHT22;31340;51.402;0.016;2023-04-24T14:02:38;20.30;70.10
44775;DHT22;31340;51.402;0.016;2023-04-24T14:05:07;20.30;68.70
44775;DHT22;31340;51.402;0.016;2023-04-24T14:07:34;20.30;68.20
44775;DHT22;31340;51.402;0.016;2023-04-24T14:10:02;20.30;68.70
44775;DHT22;31340;51.402;0.016;2023-04-24T14:12:30;20.30;68.40
44775;DHT22;31340;51.402;0.016;2023-04-24T14:14:58;20.40;68.10
44775;DHT22;31340;51.402;0.016;2023-04-24T14:17:25;20.30;68.10
44775;DHT22;31340;51.402;0.016;2023-04-24T14:19:53;20.40;68.10
44775;DHT22;31340;51.402;0.016;2023-04-24T14:22:23;20.40;68.10
44775;DHT22;31340;51.402;0.016;2023-04-24T14:24:51;20.40;67.90
44775;DHT22;31340;51.402;0.016;2023-04-24T14:27:18;20.40;67.90
44775;DHT22;31340;51.402;0.016;2023-04-24T14:29:45;20.40;67.00
44775;DHT22;31340;51.402;0.016;2023-04-24T14:32:15;20.40;66.50
44775;DHT22;31340;51.402;0.016;2023-04-24T14:34:43;20.30;65.90
44775;DHT22;31340;51.402;0.016;2023-04-24T14:37:10;20.30;66.00
44775;DHT22;31340;51.402;0.016;2023-04-24T14:39:38;20.20;65.90
44775;DHT22;31340;51.402;0.016;2023-04-24T14:42:05;20.10;65.80
44775;DHT22;31340;51.402;0.016;2023-04-24T14:44:33;20.00;65.90
44775;DHT22;31340;51.402;0.016;2023-04-24T14:47:01;19.90;65.40
44775;DHT22;31340;51.402;0.016;2023-04-24T14:49:28;19.80;65.30
44775;DHT22;31340;51.402;0.016;2023-04-24T14:51:56;19.60;65.20
44775;DHT22;31340;51.402;0.016;2023-04-24T14:54:23;19.50;65.50
44775;DHT22;31340;51.402;0.016;2023-04-24T14:56:51;19.30;65.50
44775;DHT22;31340;51.402;0.016;2023-04-24T14:59:19;19.20;65.50
44775;DHT22;31340;51.402;0.016;2023-04-24T15:01:47;19.10;66.10
44775;DHT22;31340;51.402;0.016;2023-04-24T15:04:15;18.90;66.60
44775;DHT22;31340;51.402;0.016;2023-04-24T15:06:43;18.80;67.00
44775;DHT22;31340;51.402;0.016;2023-04-24T15:09:10;18.70;67.20
44775;DHT22;31340;51.402;0.016;2023-04-24T15:11:38;18.60;67.20
44775;DHT22;31340;51.402;0.016;2023-04-24T15:14:06;18.50;67.10
44775;DHT22;31340;51.402;0.016;2023-04-24T15:16:33;18.30;67.10
44775;DHT22;31340;51.402;0.016;2023-04-24T15:19:01;18.20;67.40
44775;DHT22;31340;51.402;0.016;2023-04-24T15:21:29;18.00;67.30
44775;DHT22;31340;51.402;0.016;2023-04-24T15:23:56;17.90;67.60
44775;DHT22;31340;51.402;0.016;2023-04-24T15:26:24;17.70;67.60
44775;DHT22;31340;51.402;0.016;2023-04-24T15:28:51;17.60;69.80
44775;DHT22;31340;51.402;0.016;2023-04-24T15:31:20;17.30;72.80
44775;DHT22;31340;51.402;0.016;2023-04-24T15:33:50;17.00;74.50
44775;DHT22;31340;51.402;0.016;2023-04-24T15:36:18;16.60;76.50
44775;DHT22;31340;51.402;0.016;2023-04-24T15:38:46;16.20;78.10
44775;DHT22;31340;51.402;0.016;2023-04-24T15:41:13;15.80;79.30
44775;DHT22;31340;51.402;0.016;2023-04-24T15:43:41;15.40;80.30
44775;DHT22;31340;51.402;0.016;2023-04-24T15:46:09;15.00;81.20
44775;DHT22;31340;51.402;0.016;2023-04-24T15:48:37;14.60;82.30
44775;DHT22;31340;51.402;0.016;2023-04-24T15:51:07;14.30;83.30
44775;DHT22;31340;51.402;0.016;2023-04-24T15:53:35;14.00;84.90
44775;DHT22;31340;51.402;0.016;2023-04-24T15:56:03;13.80;86.30